Time;durP1;ratioP1;P1;durP2;ratioP2;P2;SDS_P1;SDS_P2;PMS_P1;PMS_P2;Temp;Humidity;BMP_temperature;BMP_pressure;BME280_temperature;BME280_humidity;BME280_pressure;Samples;Min_cycle;Max_cycle;Signal;HPM_P1;HPM_P2
2023/10/26 00:00:58;;;;;;;0.00;0.00;;;;;;;15.91;60.05;98148.25;5308406;26;20076;-93
2023/10/26 00:03:23;;;;;;;0.08;0.08;;;;;;;15.91;60.05;98150.88;5308625;26;20108;-95
2023/10/26 00:05:48;;;;;;;0.00;0.00;;;;;;;15.91;60.05;98138.59;5308592;26;20100;-95
2023/10/26 00:08:14;;;;;;;0.10;0.05;;;;;;;15.80;60.05;98130.72;5308515;26;20406;-94
2023/10/26 00:10:40;;;;;;;0.00;0.00;;;;;;;15.75;60.04;98126.81;5308690;26;20100;-93
2023/10/26 00:13:05;;;;;;;0.00;0.00;;;;;;;15.75;60.04;98125.00;5307639;26;20079;-95
2023/10/26 00:15:31;;;;;;;0.10;0.10;;;;;;;15.73;60.04;98119.06;5308216;26;20109;-96
2023/10/26 00:17:56;;;;;;;0.13;0.13;;;;;;;15.70;60.04;98128.97;5308147;26;20075;-95
2023/10/26 00:20:22;;;;;;;0.10;0.10;;;;;;;15.74;60.04;98125.13;5308076;26;20095;-95
2023/10/26 00:22:47;;;;;;;0.00;0.00;;;;;;;15.62;60.03;98130.41;5307945;26;20367;-96
2023/10/26 00:25:12;;;;;;;1.27;0.68;;;;;;;15.62;60.04;98124.31;5308267;26;20546;-96
2023/10/26 00:27:40;;;;;;;0.22;0.22;;;;;;;15.46;60.03;98115.94;5308027;26;20048;-96
2023/10/26 00:30:08;;;;;;;0.20;0.20;;;;;;;15.46;60.02;98118.56;5308896;26;20060;-95
2023/10/26 00:32:33;;;;;;;0.00;0.00;;;;;;;15.33;60.02;98110.81;5290413;26;20436;-94
2023/10/26 00:34:59;;;;;;;0.00;0.00;;;;;;;15.39;60.01;98107.72;5308406;26;20083;-94
2023/10/26 00:37:24;;;;;;;0.20;0.20;;;;;;;15.48;60.03;98101.75;5308140;26;20096;-94
2023/10/26 00:39:49;;;;;;;0.00;0.00;;;;;;;15.40;60.03;98111.19;5307944;26;20083;-96
2023/10/26 00:42:15;;;;;;;0.00;0.00;;;;;;;15.38;60.02;98105.19;5308437;26;20108;-95
2023/10/26 00:44:40;;;;;;;0.15;0.15;;;;;;;15.34;60.02;98104.59;5308649;26;20115;-95
2023/10/26 00:47:06;;;;;;;0.00;0.00;;;;;;;15.40;60.03;98100.69;5308602;26;20066;-94
2023/10/26 00:49:32;;;;;;;0.05;0.05;;;;;;;15.27;60.02;98106.03;5307946;26;20566;-94
2023/10/26 00:51:59;;;;;;;0.00;0.00;;;;;;;15.24;60.01;98101.88;5308257;26;20108;-93
2023/10/26 00:54:25;;;;;;;0.00;0.00;;;;;;;15.29;60.02;98107.59;5290331;26;20053;-94
2023/10/26 00:56:50;;;;;;;0.10;0.10;;;;;;;15.15;60.00;98109.63;5308207;26;20056;-94
2023/10/26 00:59:19;;;;;;;0.00;0.00;;;;;;;14.98;60.00;98106.50;5308444;26;20397;-93
2023/10/26 01:01:45;;;;;;;0.00;0.00;;;;;;;14.94;59.99;98106.84;5308336;26;20098;-94
2023/10/26 01:04:14;;;;;;;0.00;0.00;;;;;;;14.98;60.00;98109.13;5290375;26;20052;-95
2023/10/26 01:06:42;;;;;;;0.00;0.00;;;;;;;14.93;59.99;98106.03;5327354;26;20043;-93
2023/10/26 01:09:08;;;;;;;0.10;0.10;;;;;;;15.06;60.01;98098.03;5308765;26;20111;-93
2023/10/26 01:11:34;;;;;;;1.50;0.35;;;;;;;14.99;60.00;98092.44;5308213;26;20087;-94
2023/10/26 01:14:00;;;;;;;0.82;0.35;;;;;;;14.98;60.00;98088.16;5290189;26;20071;-93
2023/10/26 01:16:25;;;;;;;0.00;0.00;;;;;;;15.15;60.00;98092.12;5308234;26;20055;-94
2023/10/26 01:18:50;;;;;;;0.00;0.00;;;;;;;15.14;60.01;98089.59;5308206;26;20056;-94
2023/10/26 01:21:16;;;;;;;0.00;0.00;;;;;;;15.04;60.01;98089.47;5307534;26;20114;-94
2023/10/26 01:23:41;;;;;;;0.30;0.30;;;;;;;14.88;59.99;98084.56;5306982;26;20092;-94
2023/10/26 01:26:07;;;;;;;5.37;0.30;;;;;;;14.87;60.00;98090.75;5307896;26;20068;-94
2023/10/26 01:28:32;;;;;;;0.20;0.20;;;;;;;14.88;59.99;98086.34;5307759;26;23044;-94
2023/10/26 01:30:58;;;;;;;0.00;0.00;;;;;;;14.88;60.00;98076.69;5308195;26;20091;-95
2023/10/26 01:33:23;;;;;;;0.37;0.37;;;;;;;14.89;59.99;98077.53;5308298;26;20057;-95
2023/10/26 01:35:49;;;;;;;0.20;0.20;;;;;;;15.01;59.99;98079.22;5308522;26;20048;-94
2023/10/26 01:38:14;;;;;;;0.00;0.00;;;;;;;15.12;60.01;98065.28;5308415;26;20060;-94
2023/10/26 01:40:40;;;;;;;0.00;0.00;;;;;;;15.03;60.01;98070.28;5308055;26;20108;-94
2023/10/26 01:43:05;;;;;;;0.00;0.00;;;;;;;15.21;60.01;98069.84;5307859;26;20425;-95
2023/10/26 01:45:30;;;;;;;0.00;0.00;;;;;;;15.15;60.01;98065.91;5308407;26;20326;-94
2023/10/26 01:47:59;;;;;;;0.00;0.00;;;;;;;15.06;60.00;98074.47;5307730;26;20142;-94
2023/10/26 01:50:25;;;;;;;0.00;0.00;;;;;;;14.93;59.99;98081.59;5290380;26;20064;-93
2023/10/26 01:52:50;;;;;;;0.88;0.43;;;;;;;14.86;59.99;98090.84;5308018;26;20096;-94
2023/10/26 01:55:16;;;;;;;0.00;0.00;;;;;;;14.86;59.99;98086.44;5308157;26;20059;-94
2023/10/26 01:57:41;;;;;;;0.00;0.00;;;;;;;14.70;59.98;98089.41;5308189;26;20086;-94
2023/10/26 02:00:08;;;;;;;0.00;0.00;;;;;;;14.90;59.99;98080.03;5308005;26;20056;-95
2023/10/26 02:02:34;;;;;;;0.10;0.05;;;;;;;14.66;59.98;98079.25;5290368;26;20052;-93
2023/10/26 02:04:59;;;;;;;0.00;0.00;;;;;;;14.71;59.99;98078.00;5308220;26;20078;-93
2023/10/26 02:07:25;;;;;;;0.00;0.00;;;;;;;14.92;60.00;98075.53;5308305;26;20083;-93
2023/10/26 02:09:50;;;;;;;4.47;1.45;;;;;;;14.89;60.00;98073.13;5308022;26;20065;-94
2023/10/26 02:12:15;;;;;;;0.00;0.00;;;;;;;14.79;60.00;98061.69;5308178;26;20076;-94
2023/10/26 02:14:41;;;;;;;0.00;0.00;;;;;;;15.00;60.00;98062.66;5307891;26;20083;-93
2023/10/26 02:17:06;;;;;;;0.00;0.00;;;;;;;15.03;60.00;98054.56;5307474;26;28073;-93
2023/10/26 02:19:32;;;;;;;0.00;0.00;;;;;;;15.13;60.01;98052.06;5307764;26;20143;-94
2023/10/26 02:21:57;;;;;;;0.00;0.00;;;;;;;15.09;60.00;98052.41;5307905;26;20101;-94
2023/10/26 02:24:23;;;;;;;0.00;0.00;;;;;;;15.18;60.01;98041.25;5307862;26;20404;-93
2023/10/26 02:26:48;;;;;;;0.00;0.00;;;;;;;15.07;60.00;98043.84;5307979;26;20453;-93
2023/10/26 02:29:13;;;;;;;0.00;0.00;;;;;;;15.18;60.02;98041.25;5308244;26;20479;-93
2023/10/26 02:31:39;;;;;;;0.20;0.20;;;;;;;15.14;60.01;98038.03;5308163;26;20215;-94
2023/10/26 02:34:04;;;;;;;0.20;0.20;;;;;;;15.18;60.02;98043.88;5306786;26;20116;-93
2023/10/26 02:36:30;;;;;;;0.00;0.00;;;;;;;15.16;60.00;98043.97;5307910;26;20516;-92
2023/10/26 02:38:55;;;;;;;0.00;0.00;;;;;;;15.18;60.01;98044.69;5307780;26;20121;-92
2023/10/26 02:41:21;;;;;;;0.03;0.03;;;;;;;15.13;60.01;98041.56;5307803;26;20068;-93
2023/10/26 02:43:46;;;;;;;0.00;0.00;;;;;;;14.99;60.00;98049.69;5308068;26;20092;-93
2023/10/26 02:46:11;;;;;;;0.00;0.00;;;;;;;15.01;59.99;98050.41;5326505;26;20311;-93
2023/10/26 02:48:37;;;;;;;0.00;0.00;;;;;;;15.04;60.01;98042.28;5307620;26;20069;-93
2023/10/26 02:51:03;;;;;;;0.00;0.00;;;;;;;14.99;60.00;98053.12;5308149;26;20104;-92
2023/10/26 02:53:28;;;;;;;0.00;0.00;;;;;;;14.88;60.00;98050.50;5308061;26;20044;-93
2023/10/26 02:55:54;;;;;;;0.13;0.10;;;;;;;14.84;59.99;98046.44;5308019;26;20078;-91
2023/10/26 02:58:19;;;;;;;0.15;0.10;;;;;;;14.84;59.99;98051.69;5307126;26;24948;-92
2023/10/26 03:00:44;;;;;;;0.20;0.20;;;;;;;14.96;60.00;98039.44;5307188;26;22666;-91
2023/10/26 03:03:10;;;;;;;0.00;0.00;;;;;;;15.01;59.99;98040.75;5308108;26;20091;-92
2023/10/26 03:05:37;;;;;;;0.00;0.00;;;;;;;14.75;59.98;98052.41;5326371;26;20055;-93
2023/10/26 03:08:04;;;;;;;0.00;0.00;;;;;;;14.89;59.99;98053.94;5308153;26;20125;-92
2023/10/26 03:10:29;;;;;;;0.10;0.10;;;;;;;14.79;59.99;98059.06;5307844;26;20066;-93
2023/10/26 03:12:54;;;;;;;0.00;0.00;;;;;;;14.62;59.97;98060.34;5307875;26;20356;-90
2023/10/26 03:15:20;;;;;;;0.00;0.00;;;;;;;14.70;59.98;98058.00;5308032;26;20413;-90
2023/10/26 03:17:45;;;;;;;0.20;0.20;;;;;;;14.51;59.98;98060.31;5307682;26;20119;-93
2023/10/26 03:20:11;;;;;;;0.00;0.00;;;;;;;14.54;59.97;98056.63;5307858;26;20074;-92
2023/10/26 03:22:36;;;;;;;0.60;0.45;;;;;;;14.42;59.97;98063.56;5307331;26;20063;-92
2023/10/26 03:25:02;;;;;;;0.00;0.00;;;;;;;14.39;59.96;98069.03;5307530;26;20083;-93
2023/10/26 03:27:27;;;;;;;0.00;0.00;;;;;;;14.47;59.97;98065.91;5307051;26;20083;-93
2023/10/26 03:29:54;;;;;;;0.10;0.03;;;;;;;14.60;59.98;98062.22;5307905;26;20063;-93
2023/10/26 03:32:19;;;;;;;0.00;0.00;;;;;;;14.38;59.96;98070.00;5307811;26;20060;-91
2023/10/26 03:34:45;;;;;;;0.00;0.00;;;;;;;14.38;59.96;98064.75;5306761;26;25744;-91
2023/10/26 03:37:10;;;;;;;0.00;0.00;;;;;;;14.48;59.98;98065.78;5325891;26;20076;-91
2023/10/26 03:39:36;;;;;;;0.15;0.15;;;;;;;14.43;59.97;98067.88;5306909;26;20052;-92
2023/10/26 03:42:02;;;;;;;0.03;0.03;;;;;;;14.30;59.96;98073.19;5307852;26;20068;-92
2023/10/26 03:44:28;;;;;;;0.00;0.00;;;;;;;14.39;59.96;98071.66;5306523;26;20112;-93
2023/10/26 03:46:53;;;;;;;0.17;0.17;;;;;;;14.35;59.97;98072.84;5307849;26;20095;-94
2023/10/26 03:49:19;;;;;;;0.00;0.00;;;;;;;14.42;59.97;98072.25;5307547;26;20056;-93
2023/10/26 03:51:46;;;;;;;0.03;0.03;;;;;;;14.50;59.97;98058.66;5289617;26;20311;-93
2023/10/26 03:54:12;;;;;;;0.00;0.00;;;;;;;14.67;59.98;98066.09;5289651;26;20060;-93
2023/10/26 03:56:37;;;;;;;0.08;0.08;;;;;;;14.46;59.97;98066.84;5307656;26;20119;-94
2023/10/26 03:59:02;;;;;;;0.00;0.00;;;;;;;14.25;59.96;98064.84;5306884;26;23884;-93
2023/10/26 04:01:28;;;;;;;0.00;0.00;;;;;;;14.19;59.96;98067.88;5307269;26;20134;-92
2023/10/26 04:03:53;;;;;;;0.00;0.00;;;;;;;14.32;59.96;98066.03;5307537;26;20116;-93
2023/10/26 04:06:19;;;;;;;0.10;0.10;;;;;;;14.06;59.95;98074.97;5306830;26;20053;-91
2023/10/26 04:08:44;;;;;;;0.17;0.17;;;;;;;13.87;59.93;98069.41;5307178;26;25415;-92
2023/10/26 04:11:16;;;;;;;0.00;0.00;;;;;;;13.90;59.94;98066.56;5307024;26;20079;-92
2023/10/26 04:13:41;;;;;;;0.10;0.10;;;;;;;13.95;59.94;98064.44;5289564;26;20110;-92
2023/10/26 04:16:07;;;;;;;0.00;0.00;;;;;;;13.87;59.93;98061.56;5307252;26;20060;-94
2023/10/26 04:18:33;;;;;;;0.37;0.28;;;;;;;13.73;59.93;98063.41;5307443;26;20459;-93
2023/10/26 04:20:58;;;;;;;0.15;0.15;;;;;;;13.75;59.93;98058.91;5306532;26;20097;-93
2023/10/26 04:23:24;;;;;;;0.10;0.10;;;;;;;13.70;59.93;98063.59;5307003;26;20108;-92
2023/10/26 04:25:50;;;;;;;0.10;0.10;;;;;;;13.76;59.93;98062.34;5307171;26;20116;-93
2023/10/26 04:28:16;;;;;;;1.30;1.23;;;;;;;13.71;59.93;98062.66;5325820;26;20124;-94
2023/10/26 04:30:47;;;;;;;0.10;0.10;;;;;;;13.85;59.93;98064.28;5307275;26;20061;-93
2023/10/26 04:33:15;;;;;;;0.00;0.00;;;;;;;13.73;59.94;98066.00;5308359;26;20084;-93
2023/10/26 04:35:42;;;;;;;0.68;0.55;;;;;;;13.88;59.94;98063.22;5307581;26;20069;-92
2023/10/26 04:38:08;;;;;;;0.00;0.00;;;;;;;13.70;59.93;98068.00;5289933;26;20113;-93
2023/10/26 04:40:34;;;;;;;0.00;0.00;;;;;;;13.61;59.92;98061.66;5308332;26;20111;-93
2023/10/26 04:42:59;;;;;;;0.70;0.30;;;;;;;13.95;59.94;98073.13;5290426;26;20068;-93
2023/10/26 04:45:25;;;;;;;0.05;0.05;;;;;;;13.64;59.92;98073.66;5308418;26;20071;-94
2023/10/26 04:47:50;;;;;;;0.00;0.00;;;;;;;13.72;59.92;98072.19;5308337;26;20080;-93
2023/10/26 04:50:16;;;;;;;0.00;0.00;;;;;;;13.64;59.94;98064.03;5307992;26;20099;-94
2023/10/26 04:52:41;;;;;;;0.00;0.00;;;;;;;13.69;59.93;98072.37;5307640;26;20079;-94
2023/10/26 04:55:07;;;;;;;2.50;0.85;;;;;;;13.57;59.92;98072.44;5307984;26;20095;-92
2023/10/26 04:57:34;;;;;;;0.00;0.00;;;;;;;13.85;59.94;98073.91;5289947;26;20220;-93
2023/10/26 04:59:59;;;;;;;0.00;0.00;;;;;;;13.72;59.93;98066.09;5308722;26;20067;-92
2023/10/26 05:02:25;;;;;;;0.00;0.00;;;;;;;13.69;59.93;98064.53;5308352;26;20105;-93
2023/10/26 05:04:50;;;;;;;0.00;0.00;;;;;;;13.76;59.94;98070.19;5308766;26;20587;-93
2023/10/26 05:07:16;;;;;;;0.37;0.35;;;;;;;13.74;59.93;98067.69;5308390;26;20067;-93
2023/10/26 05:09:41;;;;;;;0.05;0.05;;;;;;;13.76;59.93;98073.63;5326358;26;20069;-94
2023/10/26 05:12:07;;;;;;;0.32;0.32;;;;;;;13.84;59.94;98067.84;5307902;26;20315;-94
2023/10/26 05:14:32;;;;;;;0.00;0.00;;;;;;;13.88;59.94;98063.22;5308237;26;20394;-94
2023/10/26 05:16:57;;;;;;;0.00;0.00;;;;;;;13.91;59.94;98063.00;5307869;26;20087;-93
2023/10/26 05:19:23;;;;;;;0.65;0.65;;;;;;;14.18;59.96;98060.16;5307879;26;20076;-94
2023/10/26 05:21:48;;;;;;;0.30;0.30;;;;;;;14.00;59.94;98064.97;5307218;26;20116;-92
2023/10/26 05:24:14;;;;;;;0.10;0.08;;;;;;;14.02;59.94;98076.16;5307826;26;20111;-93
2023/10/26 05:26:39;;;;;;;0.00;0.00;;;;;;;14.07;59.95;98074.03;5307564;26;25645;-94
2023/10/26 05:29:04;;;;;;;0.00;0.00;;;;;;;14.05;59.95;98083.78;5307503;26;22096;-95
2023/10/26 05:31:30;;;;;;;0.25;0.20;;;;;;;14.10;59.96;98084.28;5307489;26;29424;-93
2023/10/26 05:33:55;;;;;;;0.10;0.10;;;;;;;14.16;59.95;98086.44;5308641;26;20075;-94
2023/10/26 05:36:21;;;;;;;0.37;0.37;;;;;;;14.22;59.96;98087.78;5308300;26;20123;-91
2023/10/26 05:38:46;;;;;;;0.15;0.15;;;;;;;14.34;59.97;98084.25;5307591;26;20449;-91
2023/10/26 05:41:11;;;;;;;0.00;0.00;;;;;;;14.62;59.97;98083.91;5307895;26;20068;-91
2023/10/26 05:43:37;;;;;;;0.00;0.00;;;;;;;14.86;59.99;98085.63;5308096;26;20146;-90
2023/10/26 05:46:03;;;;;;;0.00;0.00;;;;;;;14.69;59.98;98092.16;5307739;26;20700;-91
2023/10/26 05:48:31;;;;;;;0.05;0.05;;;;;;;14.89;60.00;98088.00;5289749;26;20056;-92
2023/10/26 05:50:57;;;;;;;1.55;0.70;;;;;;;14.77;59.98;98083.72;5308258;26;20112;-91
2023/10/26 05:53:22;;;;;;;0.00;0.00;;;;;;;14.60;59.98;98075.31;5307898;26;20627;-91
2023/10/26 05:55:57;;;;;;;0.70;0.70;;;;;;;14.66;59.98;98090.56;5307857;26;20052;-91
2023/10/26 05:58:23;;;;;;;0.20;0.20;;;;;;;14.64;59.98;98097.72;5289775;26;20058;-91
2023/10/26 06:00:48;;;;;;;0.00;0.00;;;;;;;14.77;59.98;98105.50;5307988;26;20064;-92
2023/10/26 06:03:14;;;;;;;0.00;0.00;;;;;;;14.79;59.99;98106.22;5306714;26;20116;-90
2023/10/26 06:05:39;;;;;;;2.45;0.82;;;;;;;15.00;60.00;98106.38;5308079;26;20087;-91
2023/10/26 06:08:04;;;;;;;0.50;0.50;;;;;;;14.97;60.00;98115.31;5307455;26;20104;-92
2023/10/26 06:10:30;;;;;;;0.37;0.37;;;;;;;15.01;59.99;98119.34;5307821;26;20111;-93
2023/10/26 06:12:55;;;;;;;0.05;0.05;;;;;;;15.14;60.00;98124.50;5306861;26;27345;-92
2023/10/26 06:15:21;;;;;;;0.00;0.00;;;;;;;15.21;60.01;98125.72;5307691;26;20072;-91
2023/10/26 06:17:46;;;;;;;1.30;0.47;;;;;;;15.29;60.01;98125.94;5306510;26;20111;-92
2023/10/26 06:20:12;;;;;;;1.25;1.10;;;;;;;15.51;60.02;98122.50;5306633;26;20060;-91
2023/10/26 06:22:37;;;;;;;0.00;0.00;;;;;;;15.72;60.04;98121.81;5306425;26;20076;-91
2023/10/26 06:25:05;;;;;;;0.10;0.10;;;;;;;15.67;60.04;98130.03;5306834;26;20097;-92
2023/10/26 06:27:31;;;;;;;0.00;0.00;;;;;;;15.58;60.03;98151.69;5306606;26;20108;-91
2023/10/26 06:29:57;;;;;;;0.17;0.10;;;;;;;15.77;60.03;98149.34;5306328;26;20067;-91
2023/10/26 06:32:22;;;;;;;0.00;0.00;;;;;;;15.53;60.03;98152.06;5306619;26;20103;-92
2023/10/26 06:34:48;;;;;;;0.00;0.00;;;;;;;15.57;60.03;98147.41;5306991;26;20096;-92
2023/10/26 06:37:13;;;;;;;0.10;0.10;;;;;;;15.90;60.04;98136.94;5306436;26;20143;-92
2023/10/26 06:39:39;;;;;;;0.70;0.70;;;;;;;16.01;60.06;98128.19;5306210;26;20436;-90
2023/10/26 06:42:04;;;;;;;2.83;0.68;;;;;;;16.03;60.06;98134.16;5306166;26;20135;-91
2023/10/26 06:44:30;;;;;;;0.00;0.00;;;;;;;15.80;60.04;98143.84;5306322;26;20067;-92
2023/10/26 06:46:55;;;;;;;0.75;0.32;;;;;;;15.76;60.04;98144.22;5305934;26;20128;-91
2023/10/26 06:49:21;;;;;;;0.35;0.35;;;;;;;15.82;60.04;98146.34;5306396;26;20126;-90
2023/10/26 06:51:48;;;;;;;0.00;0.00;;;;;;;16.02;60.06;98142.97;5306230;26;20143;-90
2023/10/26 06:54:15;;;;;;;0.40;0.40;;;;;;;16.13;60.06;98148.22;5306616;26;20056;-91
2023/10/26 06:56:41;;;;;;;0.35;0.35;;;;;;;16.01;60.05;98150.97;5306464;26;20428;-91
2023/10/26 06:59:06;;;;;;;1.42;0.65;;;;;;;16.12;60.06;98136.06;5306629;26;20075;-92
2023/10/26 07:01:33;;;;;;;0.20;0.20;;;;;;;16.25;60.07;98139.34;5305965;26;20092;-91
2023/10/26 07:03:59;;;;;;;0.30;0.30;;;;;;;16.23;60.06;98143.88;5307319;26;20056;-91
2023/10/26 07:06:24;;;;;;;0.45;0.45;;;;;;;16.18;60.06;98143.44;5306275;26;20110;-92
2023/10/26 07:08:50;;;;;;;0.00;0.00;;;;;;;16.19;60.06;98149.50;5306245;26;20123;-92
2023/10/26 07:11:15;;;;;;;0.52;0.52;;;;;;;16.21;60.06;98158.94;5306317;26;20080;-91
2023/10/26 07:13:41;;;;;;;0.52;0.52;;;;;;;16.18;60.07;98156.56;5305511;26;20116;-91
2023/10/26 07:16:06;;;;;;;0.00;0.00;;;;;;;16.03;60.05;98157.78;5305877;26;20127;-91
2023/10/26 07:18:32;;;;;;;0.10;0.10;;;;;;;16.01;60.05;98158.84;5288364;26;20091;-92
2023/10/26 07:20:58;;;;;;;0.10;0.10;;;;;;;16.11;60.06;98170.31;5288064;26;20076;-91
2023/10/26 07:23:23;;;;;;;0.45;0.45;;;;;;;16.07;60.05;98174.94;5306234;26;20056;-93
2023/10/26 07:25:49;;;;;;;0.60;0.60;;;;;;;16.23;60.06;98164.06;5305866;26;20060;-92
2023/10/26 07:28:14;;;;;;;0.20;0.20;;;;;;;16.16;60.06;98168.97;5306261;26;20110;-91
2023/10/26 07:30:43;;;;;;;0.85;0.45;;;;;;;16.18;60.06;98160.97;5307050;26;20076;-93
2023/10/26 07:33:08;;;;;;;0.70;0.65;;;;;;;16.25;60.07;98146.38;5287680;26;20763;-92
2023/10/26 07:35:42;;;;;;;0.30;0.28;;;;;;;16.34;60.07;98145.66;5305735;26;20066;-92
2023/10/26 07:38:08;;;;;;;0.65;0.50;;;;;;;16.42;60.07;98147.66;5307313;26;20075;-93
2023/10/26 07:40:34;;;;;;;0.00;0.00;;;;;;;16.37;60.07;98158.53;5287872;26;20052;-91
2023/10/26 07:43:00;;;;;;;0.00;0.00;;;;;;;16.39;60.07;98171.53;5305787;26;20075;-92
2023/10/26 07:45:25;;;;;;;0.00;0.00;;;;;;;16.24;60.07;98163.94;5305955;26;20049;-92
2023/10/26 07:47:51;;;;;;;0.30;0.30;;;;;;;16.37;60.07;98168.22;5306130;26;20087;-91
2023/10/26 07:50:19;;;;;;;0.52;0.50;;;;;;;16.47;60.08;98177.00;5305850;26;20396;-92
2023/10/26 07:52:45;;;;;;;0.00;0.00;;;;;;;16.47;60.08;98179.63;5306791;26;20056;-93
2023/10/26 07:55:11;;;;;;;0.55;0.40;;;;;;;16.52;60.08;98174.81;5305833;26;20185;-91
2023/10/26 07:57:37;;;;;;;0.20;0.20;;;;;;;16.36;60.07;98169.16;5305822;26;20061;-93
2023/10/26 08:00:04;;;;;;;0.00;0.00;;;;;;;16.52;60.08;98170.41;5324517;26;20074;-92
2023/10/26 08:02:29;;;;;;;0.13;0.13;;;;;;;16.61;60.08;98181.16;5287745;26;20479;-92
2023/10/26 08:04:55;;;;;;;0.20;0.20;;;;;;;16.43;60.07;98191.34;5305780;26;20112;-92
2023/10/26 08:07:20;;;;;;;0.35;0.35;;;;;;;16.54;60.08;98196.56;5305958;26;20065;-93
2023/10/26 08:09:45;;;;;;;0.60;0.52;;;;;;;16.51;60.08;98184.50;5306028;26;20069;-92
2023/10/26 08:12:11;;;;;;;0.60;0.37;;;;;;;16.51;60.08;98188.91;5305453;26;29645;-91
2023/10/26 08:14:37;;;;;;;1.17;0.45;;;;;;;16.79;60.10;98182.28;5307063;26;20056;-92
2023/10/26 08:17:02;;;;;;;0.00;0.00;;;;;;;16.61;60.09;98189.88;5306818;26;20107;-93
2023/10/26 08:19:28;;;;;;;0.20;0.20;;;;;;;16.94;60.10;98198.59;5307465;26;20322;-92
2023/10/26 08:21:54;;;;;;;0.30;0.10;;;;;;;16.80;60.09;98207.63;5307516;26;20067;-92
2023/10/26 08:24:19;;;;;;;0.40;0.40;;;;;;;16.80;60.09;98213.72;5306672;26;20064;-92
2023/10/26 08:26:44;;;;;;;0.70;0.70;;;;;;;16.58;60.08;98205.88;5306635;26;20064;-93
2023/10/26 08:29:10;;;;;;;0.40;0.40;;;;;;;16.66;60.09;98202.63;5306659;26;20060;-92
2023/10/26 08:31:35;;;;;;;0.20;0.20;;;;;;;16.65;60.09;98200.94;5306740;26;20180;-92
2023/10/26 08:34:01;;;;;;;6.35;1.55;;;;;;;16.67;60.08;98210.41;5325179;26;20060;-93
2023/10/26 08:36:26;;;;;;;0.20;0.20;;;;;;;16.79;60.10;98200.66;5306624;26;20311;-92
2023/10/26 08:38:52;;;;;;;0.17;0.17;;;;;;;17.06;60.11;98208.09;5306286;26;22351;-91
2023/10/26 08:41:17;;;;;;;0.00;0.00;;;;;;;17.02;60.11;98204.88;5307325;26;20101;-93
2023/10/26 08:43:43;;;;;;;1.12;1.02;;;;;;;16.97;60.11;98191.28;5306701;26;20154;-92
2023/10/26 08:46:10;;;;;;;0.10;0.10;;;;;;;17.24;60.12;98195.19;5306723;26;20073;-93
2023/10/26 08:48:38;;;;;;;0.20;0.20;;;;;;;17.30;60.12;98197.34;5306729;26;20496;-93
2023/10/26 08:51:04;;;;;;;0.10;0.10;;;;;;;17.55;60.13;98196.09;5307268;26;20086;-94
2023/10/26 08:53:29;;;;;;;0.20;0.20;;;;;;;17.61;60.13;98185.03;5288275;26;20049;-92
2023/10/26 08:55:55;;;;;;;0.43;0.43;;;;;;;17.76;60.14;98183.75;5306676;26;20115;-92
2023/10/26 08:58:20;;;;;;;0.57;0.30;;;;;;;17.79;60.15;98180.84;5306921;26;20064;-92
2023/10/26 09:00:46;;;;;;;1.65;0.77;;;;;;;18.10;60.16;98181.66;5306612;26;20099;-92
2023/10/26 09:03:11;;;;;;;0.65;0.65;;;;;;;18.32;60.18;98185.84;5306202;26;20088;-92
2023/10/26 09:06:08;;;;;;;0.28;0.28;;;;;;;18.47;60.17;98191.59;5306881;26;20112;-92
2023/10/26 09:08:33;;;;;;;0.85;0.75;;;;;;;18.31;60.17;98195.56;5293407;26;20104;-92
2023/10/26 09:11:00;;;;;;;0.98;0.77;;;;;;;18.32;60.18;98197.22;5307114;26;20060;-93
2023/10/26 09:13:27;;;;;;;0.62;0.62;;;;;;;18.43;60.18;98198.91;5306794;26;20076;-93
2023/10/26 09:15:53;;;;;;;0.10;0.10;;;;;;;18.58;60.19;98202.81;5288872;26;20059;-92
2023/10/26 09:18:22;;;;;;;1.45;0.45;;;;;;;18.62;60.18;98203.38;5288421;26;20071;-93
2023/10/26 09:21:07;;;;;;;0.00;0.00;;;;;;;18.54;60.18;98203.22;5288737;26;20421;-92
2023/10/26 09:23:39;;;;;;;3.53;0.52;;;;;;;18.78;60.20;98208.97;5288316;26;20058;-93
2023/10/26 09:26:09;;;;;;;1.35;1.17;;;;;;;19.05;60.21;98210.06;5289344;26;20191;-94
2023/10/26 09:28:56;;;;;;;0.30;0.30;;;;;;;19.20;60.22;98203.41;5289601;26;20117;-93
2023/10/26 09:31:22;;;;;;;0.75;0.52;;;;;;;19.24;60.23;98205.62;5306767;26;20052;-92
2023/10/26 09:33:48;;;;;;;0.80;0.55;;;;;;;19.28;60.22;98214.91;5288484;26;20068;-93
2023/10/26 09:36:17;;;;;;;2.40;0.95;;;;;;;19.34;60.23;98213.50;5306452;26;20127;-93
2023/10/26 09:38:43;;;;;;;0.13;0.13;;;;;;;19.58;60.24;98223.63;5307046;26;20080;-92
2023/10/26 09:41:12;;;;;;;0.00;0.00;;;;;;;19.82;60.25;98213.41;5306631;26;20115;-92
2023/10/26 09:43:40;;;;;;;0.30;0.30;;;;;;;19.87;60.25;98205.03;5288779;26;20070;-92
2023/10/26 09:46:06;;;;;;;0.10;0.10;;;;;;;19.85;60.26;98207.84;5288873;26;20057;-92
2023/10/26 09:48:32;;;;;;;0.37;0.22;;;;;;;19.97;60.26;98211.13;5288584;26;20069;-94
2023/10/26 09:51:00;;;;;;;0.37;0.37;;;;;;;19.95;60.26;98199.06;5307352;26;20052;-93
2023/10/26 09:53:31;;;;;;;0.70;0.70;;;;;;;20.15;60.26;98190.91;5325474;26;20071;-92
2023/10/26 09:55:57;;;;;;;0.30;0.30;;;;;;;20.15;60.27;98198.00;5288857;26;20069;-92
2023/10/26 09:58:23;;;;;;;0.77;0.55;;;;;;;20.32;60.28;98191.88;5306561;26;20075;-94
2023/10/26 10:00:48;;;;;;;0.28;0.28;;;;;;;20.30;60.27;98193.84;5306549;26;20056;-93
2023/10/26 10:03:16;;;;;;;1.67;1.58;;;;;;;20.29;60.28;98188.72;5306493;26;20064;-93
2023/10/26 10:05:42;;;;;;;0.57;0.57;;;;;;;20.32;60.28;98188.41;5288906;26;20086;-94
2023/10/26 10:08:08;;;;;;;0.40;0.40;;;;;;;20.32;60.28;98193.69;5288265;26;20057;-94
2023/10/26 10:10:33;;;;;;;0.20;0.20;;;;;;;20.41;60.29;98185.75;5306911;26;20135;-93
2023/10/26 10:12:59;;;;;;;0.65;0.60;;;;;;;20.26;60.28;98179.28;5306378;26;20112;-93
2023/10/26 10:15:42;;;;;;;0.37;0.37;;;;;;;20.13;60.27;98178.81;5306651;26;20120;-93
2023/10/26 10:18:08;;;;;;;1.90;1.25;;;;;;;20.21;60.28;98170.97;5308737;26;20064;-93
2023/10/26 10:20:34;;;;;;;0.52;0.52;;;;;;;20.24;60.27;98175.97;5306540;26;20088;-94
2023/10/26 10:23:00;;;;;;;0.37;0.37;;;;;;;20.21;60.27;98174.44;5288150;26;20684;-93
2023/10/26 10:25:53;;;;;;;0.30;0.25;;;;;;;20.30;60.28;98164.78;5306593;26;20075;-92
2023/10/26 10:28:19;;;;;;;7.15;0.98;;;;;;;20.21;60.27;98163.87;5322209;26;20131;-93
2023/10/26 10:30:59;;;;;;;0.30;0.30;;;;;;;20.32;60.28;98160.19;5306248;26;20071;-94
2023/10/26 10:33:28;;;;;;;0.25;0.25;;;;;;;20.38;60.28;98162.25;5289674;26;20425;-93
2023/10/26 10:35:53;;;;;;;1.12;0.88;;;;;;;20.31;60.27;98161.16;5306912;26;20080;-92
2023/10/26 10:38:20;;;;;;;0.35;0.28;;;;;;;20.39;60.28;98163.09;5324904;26;20106;-93
2023/10/26 10:40:55;;;;;;;0.28;0.28;;;;;;;20.45;60.28;98165.16;5306265;26;20139;-93
2023/10/26 10:43:33;;;;;;;0.75;0.75;;;;;;;20.59;60.29;98166.47;5324925;26;20107;-94
2023/10/26 10:46:26;;;;;;;0.32;0.32;;;;;;;20.61;60.29;98162.69;5306154;26;20099;-93
2023/10/26 10:49:05;;;;;;;0.65;0.65;;;;;;;20.67;60.30;98163.87;5290542;26;20121;-94
2023/10/26 10:51:41;;;;;;;0.15;0.15;;;;;;;20.38;60.28;98154.31;5288769;26;20776;-93
2023/10/26 10:54:10;;;;;;;0.20;0.20;;;;;;;20.47;60.29;98153.44;5288838;26;20070;-92
2023/10/26 10:56:39;;;;;;;0.00;0.00;;;;;;;20.58;60.29;98157.66;5288711;26;20059;-92
2023/10/26 10:59:25;;;;;;;4.50;1.48;;;;;;;20.53;60.29;98163.41;5306418;26;20073;-93
2023/10/26 11:02:10;;;;;;;0.00;0.00;;;;;;;20.62;60.29;98159.06;5288584;26;20459;-94
2023/10/26 11:04:50;;;;;;;0.37;0.32;;;;;;;20.59;60.29;98159.34;5288647;26;20071;-93
2023/10/26 11:07:15;;;;;;;0.30;0.22;;;;;;;20.75;60.31;98150.72;5308468;26;20118;-93
2023/10/26 11:09:41;;;;;;;0.00;0.00;;;;;;;20.81;60.32;98145.66;5306101;26;20084;-93
2023/10/26 11:12:11;;;;;;;0.22;0.22;;;;;;;20.94;60.31;98147.09;5306566;26;20057;-93
2023/10/26 11:14:36;;;;;;;0.00;0.00;;;;;;;20.97;60.32;98149.41;5288272;26;20660;-93
2023/10/26 11:17:02;;;;;;;0.08;0.08;;;;;;;21.17;60.32;98142.13;5305980;26;20132;-94
2023/10/26 11:19:27;;;;;;;0.20;0.20;;;;;;;21.17;60.32;98134.19;5301385;26;100409;-93
2023/10/26 11:21:56;;;;;;;0.00;0.00;;;;;;;21.29;60.33;98136.44;5324662;26;20191;-93
2023/10/26 11:24:31;;;;;;;0.00;0.00;;;;;;;21.31;60.33;98133.66;5305959;26;20113;-94
2023/10/26 11:27:06;;;;;;;0.00;0.00;;;;;;;21.04;60.32;98140.69;5306129;26;20083;-93
2023/10/26 11:29:31;;;;;;;0.10;0.10;;;;;;;21.15;60.32;98129.06;5306482;26;20078;-93
2023/10/26 11:31:59;;;;;;;0.10;0.10;;;;;;;21.28;60.33;98126.84;5306289;26;20095;-93